Time;durP1;ratioP1;P1;durP2;ratioP2;P2;SDS_P1;SDS_P2;PMS_P1;PMS_P2;Temp;Humidity;BMP_temperature;BMP_pressure;BME280_temperature;BME280_humidity;BME280_pressure;Samples;Min_cycle;Max_cycle;Signal;HPM_P1;HPM_P2
2023/10/05 00:01:07;;;;;;;16.10;4.60;;;13.60;99.90;;;;;;5064648;28;20037;-73
2023/10/05 00:03:37;;;;;;;11.00;4.18;;;13.70;99.90;;;;;;5048667;28;20026;-73
2023/10/05 00:06:06;;;;;;;13.65;3.97;;;13.70;99.90;;;;;;5066905;28;20081;-73
2023/10/05 00:08:35;;;;;;;12.10;4.53;;;13.70;99.90;;;;;;5065776;28;20032;-74
2023/10/05 00:11:06;;;;;;;16.03;4.17;;;13.70;99.90;;;;;;5052718;28;20044;-73
2023/10/05 00:13:34;;;;;;;13.18;4.10;;;13.70;99.90;;;;;;5047970;28;20021;-73
2023/10/05 00:15:59;;;;;;;13.80;3.67;;;13.80;99.90;;;;;;5052050;28;20068;-73
2023/10/05 00:18:27;;;;;;;13.75;4.28;;;13.80;99.90;;;;;;5066233;28;20232;-73
2023/10/05 00:20:53;;;;;;;13.85;3.50;;;13.80;99.90;;;;;;5048635;28;20025;-74
2023/10/05 00:23:24;;;;;;;10.43;3.53;;;13.80;99.90;;;;;;5055655;28;20021;-73
2023/10/05 00:25:52;;;;;;;10.63;3.63;;;13.80;99.90;;;;;;5066724;28;20022;-73
2023/10/05 00:28:23;;;;;;;12.00;4.05;;;13.80;99.90;;;;;;5069249;28;20040;-73
2023/10/05 00:30:54;;;;;;;15.95;4.32;;;13.80;99.90;;;;;;5070346;28;20021;-73
2023/10/05 00:33:25;;;;;;;13.73;3.95;;;13.80;99.90;;;;;;5056341;28;20093;-73
2023/10/05 00:35:51;;;;;;;11.60;3.78;;;13.80;99.90;;;;;;5053370;28;20032;-73
2023/10/05 00:38:18;;;;;;;14.32;3.50;;;13.70;99.90;;;;;;5069245;28;20025;-73
2023/10/05 00:40:57;;;;;;;16.05;4.75;;;13.70;99.90;;;;;;5070098;28;20005;-76
2023/10/05 00:45:50;;;;;;;14.25;3.67;;;13.70;99.90;;;;;;5069852;28;20055;-73
2023/10/05 00:48:34;;;;;;;12.40;4.33;;;13.70;99.90;;;;;;5068374;28;20022;-74
2023/10/05 00:51:00;;;;;;;14.00;4.00;;;13.60;99.90;;;;;;5066911;28;20037;-74
2023/10/05 00:53:30;;;;;;;10.05;3.67;;;13.60;99.90;;;;;;5069798;28;20041;-72
2023/10/05 00:56:11;;;;;;;15.63;4.45;;;13.60;99.90;;;;;;5054807;28;20029;-73
2023/10/05 00:58:42;;;;;;;11.97;4.20;;;13.60;99.90;;;;;;5069667;28;20036;-73
2023/10/05 01:02:01;;;;;;;16.40;4.53;;;13.60;99.90;;;;;;5056355;28;20043;-73
2023/10/05 01:06:54;;;;;;;14.68;4.15;;;13.60;99.90;;;;;;5069288;28;20013;-74
2023/10/05 01:12:02;;;;;;;13.00;4.40;;;13.50;99.90;;;;;;5068688;28;20029;-73
2023/10/05 01:14:45;;;;;;;12.98;4.72;;;13.50;99.90;;;;;;5054231;28;20021;-73
2023/10/05 01:17:11;;;;;;;11.60;3.65;;;13.50;99.90;;;;;;5067914;28;20072;-73
2023/10/05 01:19:40;;;;;;;14.15;4.35;;;13.50;99.90;;;;;;5052046;28;20032;-74
2023/10/05 01:22:11;;;;;;;10.00;3.85;;;13.50;99.90;;;;;;5067947;28;20018;-73
2023/10/05 01:24:37;;;;;;;14.47;4.23;;;13.50;99.90;;;;;;5067464;28;20039;-73
2023/10/05 01:27:03;;;;;;;12.55;4.15;;;13.40;99.90;;;;;;5068405;28;20021;-73
2023/10/05 01:29:29;;;;;;;12.75;4.32;;;13.40;99.90;;;;;;5051661;28;20051;-73
2023/10/05 01:31:57;;;;;;;13.07;3.93;;;13.40;99.90;;;;;;5068699;28;20033;-73
2023/10/05 01:34:26;;;;;;;11.13;3.83;;;13.40;99.90;;;;;;5067461;28;20013;-73
2023/10/05 01:36:53;;;;;;;10.83;4.43;;;13.40;99.90;;;;;;5047790;28;20013;-73
2023/10/05 01:39:22;;;;;;;12.18;4.20;;;13.40;99.90;;;;;;5066521;28;20025;-73
2023/10/05 01:41:53;;;;;;;11.27;3.77;;;13.40;99.90;;;;;;5068848;28;20024;-74
2023/10/05 01:44:20;;;;;;;12.05;4.05;;;13.40;99.90;;;;;;5053835;28;20025;-73
2023/10/05 01:46:48;;;;;;;12.75;4.53;;;13.50;99.90;;;;;;5052410;28;20028;-73
2023/10/05 01:49:15;;;;;;;14.40;4.13;;;13.50;99.90;;;;;;5051495;28;20049;-74
2023/10/05 01:51:43;;;;;;;12.67;4.27;;;13.50;99.90;;;;;;5050512;28;20024;-73
2023/10/05 01:54:15;;;;;;;8.20;3.87;;;13.50;99.90;;;;;;5069137;28;20032;-73
2023/10/05 01:56:43;;;;;;;17.50;4.63;;;13.50;99.90;;;;;;5058342;28;20151;-73
2023/10/05 01:59:12;;;;;;;10.43;3.30;;;13.50;99.90;;;;;;5051126;28;20040;-73
2023/10/05 02:01:40;;;;;;;11.63;4.07;;;13.50;99.90;;;;;;5069882;28;20092;-74
2023/10/05 02:04:07;;;;;;;14.47;3.50;;;13.50;99.90;;;;;;5068652;28;20021;-73
2023/10/05 02:06:49;;;;;;;11.20;3.30;;;13.50;99.90;;;;;;5068122;28;20052;-73
2023/10/05 02:09:20;;;;;;;7.97;2.90;;;13.40;99.90;;;;;;5066537;28;20044;-74
2023/10/05 02:11:49;;;;;;;13.23;3.63;;;13.50;99.90;;;;;;5066300;28;20088;-74
2023/10/05 02:14:17;;;;;;;11.33;3.30;;;13.50;99.90;;;;;;5067931;28;20052;-73
2023/10/05 02:16:49;;;;;;;10.45;3.72;;;13.50;99.90;;;;;;5066958;28;20021;-73
2023/10/05 02:19:20;;;;;;;10.38;3.78;;;13.50;99.90;;;;;;5067494;28;20021;-73
2023/10/05 02:21:53;;;;;;;10.20;3.95;;;13.50;99.90;;;;;;5067737;28;20212;-73
2023/10/05 02:24:20;;;;;;;8.73;2.97;;;13.50;99.90;;;;;;5066093;28;20136;-77
2023/10/05 02:29:24;;;;;;;7.15;3.10;;;13.50;99.90;;;;;;5066293;28;20033;-73
2023/10/05 02:35:24;;;;;;;8.98;3.25;;;13.50;99.90;;;;;;5066568;28;20025;-73
2023/10/05 02:37:22;;;;;;;9.77;3.38;;;13.50;99.90;;;;;;5058249;28;20147;-73
2023/10/05 02:39:48;;;;;;;11.93;3.53;;;13.50;99.90;;;;;;5066337;28;20017;-74
2023/10/05 02:42:15;;;;;;;15.88;3.60;;;13.40;99.90;;;;;;5067292;28;20039;-73
2023/10/05 02:44:45;;;;;;;9.13;2.88;;;13.40;99.90;;;;;;5056453;28;20025;-74
2023/10/05 02:47:12;;;;;;;9.77;3.13;;;13.40;99.90;;;;;;5071069;28;20017;-73
2023/10/05 02:49:44;;;;;;;8.60;3.00;;;13.50;99.90;;;;;;5068204;28;20036;-73
2023/10/05 02:52:16;;;;;;;9.27;2.80;;;13.40;99.90;;;;;;5068504;28;20021;-73
2023/10/05 02:54:48;;;;;;;10.70;3.50;;;13.50;99.90;;;;;;5071522;28;20037;-72
2023/10/05 02:57:16;;;;;;;11.83;3.53;;;13.40;99.90;;;;;;5052527;28;20049;-72
2023/10/05 02:59:46;;;;;;;15.82;3.83;;;13.40;99.90;;;;;;5050943;28;20272;-73
2023/10/05 03:02:16;;;;;;;9.40;2.70;;;13.40;99.90;;;;;;5069201;28;20029;-73
2023/10/05 03:04:57;;;;;;;9.52;2.50;;;13.40;99.90;;;;;;5070301;28;20084;-72
2023/10/05 03:07:30;;;;;;;12.25;2.75;;;13.40;99.90;;;;;;5052597;28;20032;-73
2023/10/05 03:09:59;;;;;;;9.80;2.75;;;13.40;99.90;;;;;;5049664;28;20033;-74
2023/10/05 03:12:27;;;;;;;7.78;3.00;;;13.40;99.90;;;;;;5069391;28;20032;-75
2023/10/05 03:14:54;;;;;;;12.17;2.93;;;13.40;99.90;;;;;;5067181;28;20021;-74
2023/10/05 03:17:21;;;;;;;7.90;3.20;;;13.40;99.90;;;;;;5050557;28;20017;-74
2023/10/05 03:19:53;;;;;;;14.93;3.67;;;13.40;99.90;;;;;;5057855;28;20047;-73
2023/10/05 03:22:24;;;;;;;8.35;3.22;;;13.40;99.90;;;;;;5050525;28;20052;-74
2023/10/05 03:24:50;;;;;;;9.10;2.53;;;13.30;99.90;;;;;;5066911;28;20017;-74
2023/10/05 03:27:21;;;;;;;5.95;2.70;;;13.30;99.90;;;;;;5066211;28;20017;-73
2023/10/05 03:29:47;;;;;;;11.43;3.03;;;13.30;99.90;;;;;;5064807;28;20021;-73
2023/10/05 03:34:42;;;;;;;10.38;2.75;;;13.30;99.90;;;;;;5065856;28;20040;-73
2023/10/05 03:37:13;;;;;;;10.10;2.87;;;13.20;99.90;;;;;;5048672;28;20024;-73
2023/10/05 03:42:26;;;;;;;11.13;2.70;;;13.20;99.90;;;;;;5067770;28;20028;-73
2023/10/05 03:45:09;;;;;;;8.57;2.80;;;13.20;99.90;;;;;;5065340;28;20029;-73
2023/10/05 03:47:38;;;;;;;6.63;2.13;;;13.20;99.90;;;;;;5047675;28;20041;-74
2023/10/05 03:50:05;;;;;;;5.57;2.47;;;13.20;99.90;;;;;;5052508;28;20051;-74
2023/10/05 03:52:32;;;;;;;13.10;2.80;;;13.20;99.90;;;;;;5066122;28;20030;-73
2023/10/05 03:55:09;;;;;;;12.13;2.80;;;13.20;99.90;;;;;;5064911;28;20097;-73
2023/10/05 03:57:41;;;;;;;6.53;2.67;;;13.20;99.90;;;;;;5066267;28;20043;-73
2023/10/05 04:02:56;;;;;;;9.83;2.87;;;13.20;99.90;;;;;;5067279;28;20060;-73
2023/10/05 04:05:27;;;;;;;10.33;3.07;;;13.20;99.90;;;;;;5053731;28;20014;-73
2023/10/05 04:08:07;;;;;;;9.20;2.90;;;13.20;99.90;;;;;;5050948;28;20033;-73
2023/10/05 04:10:46;;;;;;;11.57;2.43;;;13.10;99.90;;;;;;5070406;28;20028;-73
2023/10/05 04:13:16;;;;;;;10.80;2.38;;;13.10;99.90;;;;;;5069015;28;20021;-73
2023/10/05 04:15:46;;;;;;;8.77;2.43;;;13.20;99.90;;;;;;5069889;28;20079;-73
2023/10/05 04:18:15;;;;;;;13.27;2.95;;;13.20;99.90;;;;;;5051113;28;20033;-72
2023/10/05 04:20:46;;;;;;;11.07;3.25;;;13.20;99.90;;;;;;5052519;28;20024;-73
2023/10/05 04:23:18;;;;;;;9.38;2.15;;;13.20;99.90;;;;;;5051992;28;20032;-72
2023/10/05 04:25:44;;;;;;;11.63;2.97;;;13.10;99.90;;;;;;5060784;28;20025;-73
2023/10/05 04:28:11;;;;;;;12.03;2.70;;;13.20;99.90;;;;;;5053334;28;20025;-72
2023/10/05 04:30:38;;;;;;;8.47;2.53;;;13.10;99.90;;;;;;5051417;28;20037;-73
2023/10/05 04:33:03;;;;;;;12.63;2.67;;;13.20;99.90;;;;;;5070358;28;20025;-74
2023/10/05 04:35:38;;;;;;;8.93;2.38;;;13.10;99.90;;;;;;5052673;28;20039;-73
2023/10/05 04:38:04;;;;;;;6.80;2.85;;;13.10;99.90;;;;;;5068079;28;20017;-73
2023/10/05 04:40:33;;;;;;;10.47;2.47;;;13.10;99.90;;;;;;5057478;28;20013;-73
2023/10/05 04:43:04;;;;;;;14.47;2.73;;;13.10;99.90;;;;;;5070903;28;20025;-73
2023/10/05 04:45:30;;;;;;;13.43;2.77;;;13.10;99.90;;;;;;5069968;28;20025;-74
2023/10/05 04:47:59;;;;;;;13.23;2.35;;;13.10;99.90;;;;;;5070927;28;20024;-73
2023/10/05 04:50:26;;;;;;;9.73;2.70;;;13.10;99.90;;;;;;5069368;28;20110;-73
2023/10/05 04:52:55;;;;;;;11.37;2.90;;;13.10;99.90;;;;;;5068342;28;20077;-73
2023/10/05 04:55:30;;;;;;;12.67;2.80;;;13.00;99.90;;;;;;5070124;28;20016;-73
2023/10/05 04:58:14;;;;;;;7.23;2.20;;;13.00;99.90;;;;;;5053629;28;20017;-73
2023/10/05 05:01:14;;;;;;;10.67;2.83;;;13.00;99.90;;;;;;5050680;28;20079;-73
2023/10/05 05:06:20;;;;;;;7.47;2.17;;;13.00;99.90;;;;;;5040718;28;20048;-73
2023/10/05 05:08:46;;;;;;;8.47;3.07;;;13.00;99.90;;;;;;5068570;28;20028;-73
2023/10/05 05:11:21;;;;;;;11.00;2.50;;;13.00;99.90;;;;;;5067562;28;20039;-72
2023/10/05 05:13:49;;;;;;;12.57;3.40;;;13.00;99.90;;;;;;5053352;28;20029;-73
2023/10/05 05:16:15;;;;;;;7.07;2.67;;;12.90;99.90;;;;;;5068486;28;20027;-73
2023/10/05 05:18:42;;;;;;;10.37;2.43;;;12.90;99.90;;;;;;5069020;28;20052;-73
2023/10/05 05:21:08;;;;;;;10.63;2.57;;;12.90;99.90;;;;;;5048578;28;20024;-73
2023/10/05 05:23:35;;;;;;;9.87;2.07;;;12.90;99.90;;;;;;5068835;28;20025;-72
2023/10/05 05:26:03;;;;;;;6.87;2.23;;;12.90;99.90;;;;;;5068066;28;20080;-73
2023/10/05 05:28:30;;;;;;;9.30;2.00;;;13.00;99.90;;;;;;5048089;28;20033;-73
2023/10/05 05:31:07;;;;;;;11.07;2.60;;;13.00;99.90;;;;;;5067614;28;20033;-72
2023/10/05 05:33:36;;;;;;;10.57;2.77;;;13.00;99.90;;;;;;5065078;28;20032;-73
2023/10/05 05:36:07;;;;;;;7.83;3.47;;;13.00;99.90;;;;;;5067782;28;20084;-72
2023/10/05 05:38:33;;;;;;;10.20;2.50;;;12.90;99.90;;;;;;5067468;28;21264;-74
2023/10/05 05:41:08;;;;;;;11.57;2.60;;;12.90;99.90;;;;;;5050708;28;20073;-72
2023/10/05 05:43:33;;;;;;;6.80;2.57;;;13.00;99.90;;;;;;5067994;28;20028;-73
2023/10/05 05:46:02;;;;;;;9.83;3.37;;;13.00;99.90;;;;;;5051892;28;20048;-73
2023/10/05 05:48:28;;;;;;;9.67;2.63;;;13.00;99.90;;;;;;5068862;28;20121;-73
2023/10/05 05:50:54;;;;;;;9.83;2.37;;;12.90;99.90;;;;;;5050604;28;20024;-73
2023/10/05 05:53:22;;;;;;;9.23;2.57;;;13.00;99.90;;;;;;5051625;28;20018;-73
2023/10/05 05:55:53;;;;;;;7.13;2.10;;;13.00;99.90;;;;;;5067292;28;20092;-72
2023/10/05 05:58:19;;;;;;;11.50;2.53;;;12.90;99.90;;;;;;5067763;28;20041;-73
2023/10/05 06:00:52;;;;;;;9.83;3.10;;;13.00;99.90;;;;;;5067317;28;20017;-73
2023/10/05 06:03:18;;;;;;;10.70;2.30;;;13.00;99.90;;;;;;5067800;28;20025;-73
2023/10/05 06:05:48;;;;;;;10.90;3.27;;;13.00;99.90;;;;;;5067488;28;20025;-72
2023/10/05 06:08:18;;;;;;;8.30;2.10;;;13.00;99.90;;;;;;5067504;28;20043;-73
2023/10/05 06:10:46;;;;;;;9.07;2.47;;;13.00;99.90;;;;;;5067437;28;20029;-73
2023/10/05 06:13:16;;;;;;;7.20;2.23;;;13.00;99.90;;;;;;5067686;28;20098;-73
2023/10/05 06:15:44;;;;;;;6.47;2.67;;;13.00;99.90;;;;;;5068545;28;20035;-73
2023/10/05 06:18:12;;;;;;;10.23;1.92;;;13.10;99.90;;;;;;5067337;28;20061;-73
2023/10/05 06:20:40;;;;;;;6.10;2.05;;;13.20;99.90;;;;;;5049577;28;20029;-73
2023/10/05 06:23:06;;;;;;;9.30;2.20;;;13.20;99.90;;;;;;5065203;28;20082;-73
2023/10/05 06:25:31;;;;;;;10.30;2.58;;;13.20;99.90;;;;;;5048833;28;20025;-73
2023/10/05 06:27:59;;;;;;;11.93;2.93;;;13.20;99.90;;;;;;5066369;28;20017;-74
2023/10/05 06:30:24;;;;;;;7.10;2.10;;;13.20;99.90;;;;;;5068871;28;20064;-73
2023/10/05 06:32:50;;;;;;;8.50;2.50;;;13.20;99.90;;;;;;5068404;28;20040;-73
2023/10/05 06:35:17;;;;;;;6.97;2.20;;;13.30;99.90;;;;;;5054279;28;20032;-73
2023/10/05 06:37:45;;;;;;;9.53;2.20;;;13.30;99.90;;;;;;5066067;28;20001;-73
2023/10/05 06:40:15;;;;;;;10.80;2.33;;;13.30;99.90;;;;;;5065985;28;20202;-73
2023/10/05 06:42:41;;;;;;;8.60;2.13;;;13.40;99.90;;;;;;5066849;28;20013;-73
2023/10/05 06:45:11;;;;;;;13.27;3.40;;;13.30;99.90;;;;;;5049279;28;20013;-73
2023/10/05 06:47:37;;;;;;;7.53;2.27;;;13.40;99.90;;;;;;5067351;28;20009;-73
2023/10/05 06:50:10;;;;;;;11.83;2.67;;;13.40;99.90;;;;;;5066585;28;20025;-74
2023/10/05 06:52:36;;;;;;;10.93;2.50;;;13.50;99.90;;;;;;5065139;28;20047;-73
2023/10/05 06:55:07;;;;;;;11.52;1.92;;;13.50;99.90;;;;;;5053235;28;20013;-74
2023/10/05 06:57:36;;;;;;;9.88;2.13;;;13.50;99.90;;;;;;5064697;28;20021;-72
2023/10/05 07:03:06;;;;;;;12.95;3.13;;;13.60;99.90;;;;;;5054458;28;20041;-73
2023/10/05 07:05:34;;;;;;;10.15;2.55;;;13.60;99.90;;;;;;5066319;28;20021;-72
2023/10/05 07:08:00;;;;;;;9.60;2.92;;;13.60;99.90;;;;;;5066608;28;20049;-74
2023/10/05 07:10:28;;;;;;;8.10;2.15;;;13.60;99.90;;;;;;5052333;28;20028;-73
2023/10/05 07:12:53;;;;;;;8.90;2.08;;;13.70;99.90;;;;;;5063845;28;20115;-74
2023/10/05 07:15:19;;;;;;;14.15;2.28;;;13.70;99.90;;;;;;5049146;28;20016;-74
2023/10/05 07:17:45;;;;;;;6.68;2.10;;;13.70;99.90;;;;;;5052287;28;20021;-73
2023/10/05 07:20:11;;;;;;;12.40;2.33;;;13.70;99.90;;;;;;5064665;28;20123;-73
2023/10/05 07:22:41;;;;;;;7.85;2.70;;;13.70;99.90;;;;;;5046626;28;20059;-72
2023/10/05 07:25:08;;;;;;;10.88;2.72;;;13.80;99.90;;;;;;5065378;28;20439;-74
2023/10/05 07:27:35;;;;;;;10.98;2.38;;;13.80;99.90;;;;;;5046888;28;20025;-74
2023/10/05 07:30:04;;;;;;;7.00;2.55;;;13.80;99.90;;;;;;5065016;28;20029;-74
2023/10/05 07:32:36;;;;;;;8.20;2.58;;;13.80;99.90;;;;;;5047470;28;20080;-73
2023/10/05 07:35:02;;;;;;;12.30;2.20;;;13.80;99.90;;;;;;5065603;28;20044;-74
2023/10/05 07:37:30;;;;;;;10.18;2.95;;;13.90;99.90;;;;;;5050811;28;20041;-73
2023/10/05 07:39:55;;;;;;;10.20;2.97;;;13.90;99.90;;;;;;5069029;28;20021;-73
2023/10/05 07:42:23;;;;;;;13.20;2.55;;;13.90;99.90;;;;;;5053161;28;20036;-74
2023/10/05 07:44:50;;;;;;;7.70;2.33;;;14.00;99.90;;;;;;5070445;28;20037;-74
2023/10/05 07:47:15;;;;;;;9.73;2.42;;;14.00;99.90;;;;;;5070794;28;20045;-73
2023/10/05 07:49:41;;;;;;;9.82;2.80;;;14.00;99.90;;;;;;5070718;28;20020;-75
2023/10/05 07:52:10;;;;;;;9.85;2.42;;;14.10;99.90;;;;;;5049790;28;20027;-73
2023/10/05 07:54:39;;;;;;;19.95;2.67;;;14.10;99.90;;;;;;5070271;28;20014;-73
2023/10/05 07:57:09;;;;;;;13.23;2.50;;;14.20;99.90;;;;;;5056070;28;20024;-73
2023/10/05 07:59:39;;;;;;;7.55;2.53;;;14.20;99.90;;;;;;5067849;28;21017;-73
2023/10/05 08:02:05;;;;;;;10.25;2.40;;;14.20;99.90;;;;;;5068989;28;20078;-73
2023/10/05 08:04:32;;;;;;;12.45;3.05;;;14.30;99.90;;;;;;5054398;28;20139;-73
2023/10/05 08:06:58;;;;;;;11.18;3.03;;;14.30;99.90;;;;;;5069424;28;20028;-73
2023/10/05 08:09:29;;;;;;;14.57;2.92;;;14.30;99.90;;;;;;5049024;28;20166;-73
2023/10/05 08:11:56;;;;;;;11.15;2.40;;;14.40;99.90;;;;;;5050384;28;20049;-74
2023/10/05 08:14:25;;;;;;;11.90;2.42;;;14.50;99.90;;;;;;5068242;28;20031;-73
2023/10/05 08:16:55;;;;;;;10.07;2.47;;;14.50;99.90;;;;;;5069643;28;20025;-73
2023/10/05 08:19:21;;;;;;;6.13;1.80;;;14.50;99.90;;;;;;5052152;28;20034;-73
2023/10/05 08:21:47;;;;;;;11.40;2.17;;;14.50;99.90;;;;;;5067231;28;20018;-73
2023/10/05 08:24:13;;;;;;;17.42;3.63;;;14.50;99.90;;;;;;5068373;28;20071;-74
2023/10/05 08:26:41;;;;;;;7.30;2.00;;;14.60;99.90;;;;;;5055374;28;20033;-73
2023/10/05 08:29:07;;;;;;;13.75;1.80;;;14.70;99.90;;;;;;5068996;28;20021;-74
2023/10/05 08:31:33;;;;;;;14.88;3.63;;;14.70;99.90;;;;;;5069928;28;20259;-73
2023/10/05 08:34:03;;;;;;;12.38;2.72;;;14.80;99.90;;;;;;5053303;28;20037;-74
2023/10/05 08:36:30;;;;;;;15.00;2.72;;;14.80;99.90;;;;;;5068367;28;20025;-73
2023/10/05 08:38:56;;;;;;;15.98;2.15;;;14.90;99.90;;;;;;5049058;28;20045;-73
2023/10/05 08:41:24;;;;;;;9.10;1.83;;;14.90;99.90;;;;;;5052430;28;20033;-73
2023/10/05 08:43:54;;;;;;;11.00;2.35;;;15.00;99.90;;;;;;5047629;28;20036;-74
2023/10/05 08:46:23;;;;;;;6.80;2.55;;;15.00;99.90;;;;;;5071962;28;20041;-73
2023/10/05 08:48:55;;;;;;;8.30;2.00;;;15.10;99.90;;;;;;5054749;28;20043;-73
2023/10/05 08:51:24;;;;;;;9.75;2.40;;;15.20;99.90;;;;;;5060613;28;20049;-73
2023/10/05 08:53:57;;;;;;;8.00;2.20;;;15.20;99.90;;;;;;5054821;28;20036;-73
2023/10/05 08:56:24;;;;;;;8.20;2.38;;;15.20;99.90;;;;;;5071881;28;20023;-73
2023/10/05 08:58:54;;;;;;;12.07;2.33;;;15.20;99.90;;;;;;5071737;28;20078;-73
2023/10/05 09:01:35;;;;;;;14.80;2.85;;;15.20;99.90;;;;;;5069692;28;20013;-73
2023/10/05 09:06:30;;;;;;;12.57;3.45;;;15.30;99.90;;;;;;5070752;28;20040;-73
2023/10/05 09:11:34;;;;;;;12.48;2.40;;;15.40;99.90;;;;;;5069654;28;20037;-74
2023/10/05 09:14:17;;;;;;;10.80;2.78;;;15.30;99.90;;;;;;5051100;28;20026;-74
2023/10/05 09:16:47;;;;;;;11.30;2.70;;;15.40;99.90;;;;;;5054535;28;20036;-74
2023/10/05 09:19:29;;;;;;;8.35;2.38;;;15.30;99.90;;;;;;5068990;28;20040;-73
2023/10/05 09:24:26;;;;;;;11.20;2.83;;;15.50;99.90;;;;;;5067910;28;20022;-73
2023/10/05 09:27:12;;;;;;;9.07;2.45;;;15.50;99.90;;;;;;5051164;28;20310;-73
2023/10/05 09:29:39;;;;;;;10.93;2.17;;;15.60;99.90;;;;;;5068211;28;20017;-73
2023/10/05 09:32:09;;;;;;;10.93;2.65;;;15.60;99.90;;;;;;5052335;28;20042;-74
2023/10/05 09:34:44;;;;;;;14.88;2.90;;;15.60;99.90;;;;;;5068132;28;20021;-73
2023/10/05 09:37:11;;;;;;;9.25;2.63;;;15.50;99.90;;;;;;5066476;28;20041;-73
2023/10/05 09:39:44;;;;;;;6.95;1.80;;;15.50;99.90;;;;;;5067481;28;21378;-73
2023/10/05 09:42:28;;;;;;;;;;;15.50;99.90;;;;;;5068470;28;20036;-74
2023/10/05 09:44:58;;;;;;;10.65;2.13;;;15.50;99.90;;;;;;5053274;28;19915;-73
2023/10/05 09:47:32;;;;;;;25.77;2.50;;;15.60;99.90;;;;;;5066664;28;20033;-73
2023/10/05 09:50:10;;;;;;;7.35;1.77;;;15.60;99.90;;;;;;5067342;28;20025;-73
2023/10/05 09:52:43;;;;;;;10.25;1.85;;;15.60;99.90;;;;;;5052931;28;20021;-73
2023/10/05 09:55:12;;;;;;;11.02;2.42;;;15.60;99.90;;;;;;5049640;28;20040;-73
2023/10/05 09:57:51;;;;;;;7.10;1.80;;;15.60;99.90;;;;;;5050941;28;20056;-73
2023/10/05 10:02:59;;;;;;;10.00;2.25;;;15.70;99.90;;;;;;5067505;28;20037;-73
2023/10/05 10:05:35;;;;;;;11.77;2.35;;;15.60;99.90;;;;;;5065684;28;20017;-73
2023/10/05 10:08:10;;;;;;;12.10;2.78;;;15.70;99.90;;;;;;5048764;28;20044;-73
2023/10/05 10:10:42;;;;;;;12.00;2.22;;;15.60;99.90;;;;;;5052837;28;20071;-73
2023/10/05 10:13:14;;;;;;;9.32;2.58;;;15.70;99.90;;;;;;5067709;28;20044;-73
2023/10/05 10:15:46;;;;;;;6.72;2.03;;;15.70;99.90;;;;;;5066357;28;20074;-74
2023/10/05 10:18:16;;;;;;;8.35;2.28;;;15.80;99.90;;;;;;5047380;28;20043;-73
2023/10/05 10:20:47;;;;;;;9.65;2.08;;;15.90;99.90;;;;;;5066744;28;20037;-73
2023/10/05 10:23:25;;;;;;;8.93;2.00;;;15.90;99.90;;;;;;5066510;28;20047;-73
2023/10/05 10:26:16;;;;;;;9.48;2.17;;;15.90;99.90;;;;;;5048085;28;20060;-73
2023/10/05 10:31:17;;;;;;;9.88;2.45;;;15.90;99.90;;;;;;5065702;28;20033;-73
2023/10/05 10:33:43;;;;;;;11.25;2.13;;;15.90;99.90;;;;;;5052087;28;20097;-72
2023/10/05 10:36:18;;;;;;;8.95;2.25;;;15.90;99.90;;;;;;5066450;28;20041;-73
2023/10/05 10:38:54;;;;;;;10.25;1.90;;;15.90;99.90;;;;;;5065797;28;20021;-73
2023/10/05 10:41:30;;;;;;;8.68;2.00;;;16.00;99.90;;;;;;5065248;28;20033;-73
2023/10/05 10:43:57;;;;;;;6.95;2.20;;;15.90;99.90;;;;;;5047438;28;20040;-73
2023/10/05 10:46:34;;;;;;;8.98;2.33;;;15.90;99.90;;;;;;5067440;28;20021;-73
2023/10/05 10:49:00;;;;;;;9.38;2.15;;;15.90;99.90;;;;;;5051595;28;20071;-73
2023/10/05 10:51:32;;;;;;;7.82;2.08;;;15.90;99.90;;;;;;5049936;28;20040;-73
2023/10/05 10:54:08;;;;;;;7.43;1.90;;;15.80;99.90;;;;;;5067005;28;20040;-73
2023/10/05 10:56:42;;;;;;;11.57;1.88;;;15.80;99.90;;;;;;5067161;28;20092;-73
2023/10/05 10:59:10;;;;;;;12.48;2.08;;;15.90;99.90;;;;;;5066889;28;20017;-73
2023/10/05 11:01:43;;;;;;;6.18;1.65;;;15.90;99.90;;;;;;5045881;28;20085;-73
2023/10/05 11:04:25;;;;;;;9.30;2.15;;;16.00;99.90;;;;;;5048688;28;20039;-74
2023/10/05 11:07:05;;;;;;;9.82;2.17;;;16.00;99.90;;;;;;5053486;28;20009;-73
2023/10/05 11:09:36;;;;;;;10.20;2.00;;;16.10;99.90;;;;;;5066231;28;20029;-73
2023/10/05 11:12:13;;;;;;;10.80;2.20;;;16.10;99.90;;;;;;5065079;28;20975;-75
2023/10/05 11:14:42;;;;;;;9.18;2.55;;;16.10;99.90;;;;;;5066337;28;20053;-73
2023/10/05 11:17:31;;;;;;;9.80;2.35;;;16.20;99.90;;;;;;5050066;28;20132;-74
2023/10/05 11:20:12;;;;;;;8.48;2.72;;;16.30;99.90;;;;;;5052425;28;20041;-73
2023/10/05 11:22:42;;;;;;;9.73;2.60;;;16.30;99.90;;;;;;5066989;28;20005;-73
2023/10/05 11:25:15;;;;;;;10.80;2.13;;;16.40;99.90;;;;;;5064444;28;20010;-73
2023/10/05 11:27:55;;;;;;;10.93;2.33;;;16.40;99.90;;;;;;5066504;28;20041;-73
2023/10/05 11:30:24;;;;;;;13.52;2.25;;;16.40;99.90;;;;;;5064737;28;20040;-73
2023/10/05 11:32:56;;;;;;;7.32;1.65;;;16.40;99.90;;;;;;5048632;28;20331;-73
2023/10/05 11:35:29;;;;;;;10.45;2.38;;;16.50;99.90;;;;;;5067114;28;20021;-73
2023/10/05 11:38:03;;;;;;;6.93;1.73;;;16.50;99.90;;;;;;5066573;28;20077;-73
2023/10/05 11:40:35;;;;;;;12.25;1.90;;;16.40;99.90;;;;;;5064253;28;20132;-74
2023/10/05 11:43:12;;;;;;;8.60;2.33;;;16.40;99.90;;;;;;5065584;28;20048;-74
2023/10/05 11:45:56;;;;;;;6.90;1.92;;;16.40;99.90;;;;;;5052498;28;20025;-73
2023/10/05 11:48:40;;;;;;;9.32;1.80;;;16.50;99.90;;;;;;5063615;28;20050;-73
2023/10/05 11:51:10;;;;;;;7.10;1.85;;;16.50;99.90;;;;;;5068075;28;20037;-73
2023/10/05 11:53:37;;;;;;;7.07;1.77;;;16.50;99.90;;;;;;5068490;28;20005;-73
2023/10/05 11:56:04;;;;;;;8.55;1.98;;;16.50;99.90;;;;;;5067331;28;20016;-73
2023/10/05 11:58:37;;;;;;;12.15;2.38;;;16.60;99.90;;;;;;5046860;28;20112;-73
2023/10/05 12:01:03;;;;;;;8.98;1.77;;;16.60;99.90;;;;;;5067017;28;20017;-73
2023/10/05 12:03:30;;;;;;;7.55;2.25;;;16.60;99.90;;;;;;5064502;28;20036;-74
2023/10/05 12:06:08;;;;;;;13.13;2.25;;;16.70;99.90;;;;;;5050106;28;20056;-73
2023/10/05 12:08:34;;;;;;;10.45;2.45;;;16.70;99.90;;;;;;5066106;28;20025;-73
2023/10/05 12:11:00;;;;;;;10.60;2.20;;;16.70;99.90;;;;;;5047871;28;20021;-73
2023/10/05 12:13:29;;;;;;;6.95;1.73;;;16.70;99.90;;;;;;5065965;28;20020;-73
2023/10/05 12:15:58;;;;;;;11.20;1.80;;;16.80;99.90;;;;;;5065285;28;20095;-73
2023/10/05 12:18:26;;;;;;;9.32;1.75;;;16.90;99.90;;;;;;5066429;28;20029;-73
2023/10/05 12:20:51;;;;;;;10.98;2.08;;;17.00;99.90;;;;;;5047156;28;20040;-73
2023/10/05 12:23:17;;;;;;;6.90;2.30;;;17.10;99.90;;;;;;5067976;28;20084;-73
2023/10/05 12:25:46;;;;;;;7.40;2.20;;;17.20;99.90;;;;;;5069876;28;20078;-73
2023/10/05 12:28:13;;;;;;;6.80;2.20;;;17.30;99.90;;;;;;5055934;28;20030;-73
2023/10/05 12:30:41;;;;;;;9.07;2.05;;;17.20;99.90;;;;;;5069636;28;20037;-73
2023/10/05 12:33:08;;;;;;;9.10;2.20;;;17.20;99.90;;;;;;5060431;28;20055;-73
2023/10/05 12:35:37;;;;;;;5.70;1.38;;;17.10;99.90;;;;;;5051597;28;20096;-73
2023/10/05 12:38:09;;;;;;;5.57;2.00;;;17.10;99.90;;;;;;5070469;28;20088;-73
2023/10/05 12:40:41;;;;;;;15.95;1.88;;;17.10;99.90;;;;;;5052415;28;20028;-73
2023/10/05 12:43:09;;;;;;;5.03;1.40;;;17.20;99.90;;;;;;5067953;28;20021;-73
2023/10/05 12:45:38;;;;;;;4.63;1.40;;;17.20;99.90;;;;;;5050051;28;20551;-73
2023/10/05 12:48:08;;;;;;;8.38;1.60;;;17.30;99.90;;;;;;5069343;28;20033;-73
2023/10/05 12:50:34;;;;;;;6.65;1.73;;;17.40;99.90;;;;;;5068036;28;20033;-73
2023/10/05 12:53:00;;;;;;;4.65;1.10;;;17.40;99.90;;;;;;5051106;28;20035;-73
2023/10/05 12:55:32;;;;;;;6.18;1.23;;;17.40;99.90;;;;;;5051955;28;20033;-73
2023/10/05 12:57:58;;;;;;;6.95;1.75;;;17.50;99.90;;;;;;5050739;28;20070;-73
2023/10/05 13:00:29;;;;;;;8.05;1.80;;;17.60;99.90;;;;;;5068586;28;20029;-73
2023/10/05 13:02:55;;;;;;;6.57;1.73;;;17.60;99.90;;;;;;5051145;28;20071;-73
2023/10/05 13:05:43;;;;;;;6.68;1.77;;;17.70;99.90;;;;;;5066620;28;20031;-73
2023/10/05 13:08:10;;;;;;;6.15;1.73;;;17.80;99.90;;;;;;5069665;28;20040;-73
2023/10/05 13:10:39;;;;;;;6.55;1.42;;;18.30;99.90;;;;;;5057467;28;20056;-89
2023/10/05 13:13:17;;;;;;;5.75;1.30;;;19.70;99.90;;;;;;5023107;28;20032;-82
2023/10/05 13:15:44;;;;;;;9.68;1.95;;;21.50;99.90;;;;;;5032170;28;20132;-87
2023/10/05 13:18:17;;;;;;;5.15;1.30;;;21.80;99.90;;;;;;5042291;28;20025;-87
2023/10/05 13:20:54;;;;;;;4.70;1.45;;;21.80;99.90;;;;;;5022154;28;20101;-83
2023/10/05 13:23:21;;;;;;;9.32;2.00;;;21.40;99.90;;;;;;5041827;28;20083;-83
2023/10/05 13:25:52;;;;;;;6.88;1.77;;;21.50;99.90;;;;;;5044486;28;20029;-84
2023/10/05 13:28:19;;;;;;;3.75;1.08;;;21.40;99.90;;;;;;5042857;28;20029;-81
2023/10/05 13:30:50;;;;;;;7.53;1.35;;;21.30;99.90;;;;;;5040834;28;20030;-83
2023/10/05 13:33:22;;;;;;;7.50;1.63;;;21.20;99.90;;;;;;5023891;28;20029;-83
2023/10/05 13:35:50;;;;;;;9.98;1.95;;;20.70;99.90;;;;;;5049372;28;20027;-78